Studley, Virginia
Current Conditions -  °F | °C
As of 4:16 PM on Monday 22 Dec 2014 (Local Time) from KOFP Reporting Station
Haze Haze  
Wind Chill: 32°   Ceiling: 400
Heat Index: 36°   Visibility: 1.2mi
Dew Point: 35°   Wind: 5mph
Humidity: 97%   Direction: NA
Pressure: 30.14"   Gusts: NA
Location:  37.68°N, 77.29°W
Report Text: KOFP 222116Z AUTO VRB04KT 1 1/4SM BR OVC004 02/02 A3014 RMK AO2 RAE2055UPB2055E15 P0000 T00220017
Loading
Personal Weather Stations






























Interactive Weather Map New forecast layout! Learn more

10-Day Weather Forecast

Advertisements
Track Severe Weather on mobile